sensor_id;sensor_type;location;lat;lon;timestamp;P1;durP1;ratioP1;P2;durP2;ratioP2
74904;SDS011;63465;50.862;6.220;2023-08-17T00:02:11;14.10;;;11.30;;
74904;SDS011;63465;50.862;6.220;2023-08-17T00:04:37;16.50;;;11.40;;
74904;SDS011;63465;50.862;6.220;2023-08-17T00:07:03;15.50;;;11.20;;
74904;SDS011;63465;50.862;6.220;2023-08-17T00:09:28;14.17;;;11.63;;
74904;SDS011;63465;50.862;6.220;2023-08-17T00:11:53;15.37;;;11.73;;
74904;SDS011;63465;50.862;6.220;2023-08-17T00:14:19;15.97;;;11.17;;
74904;SDS011;63465;50.862;6.220;2023-08-17T00:16:44;14.40;;;10.60;;
74904;SDS011;63465;50.862;6.220;2023-08-17T00:19:09;19.10;;;10.83;;
74904;SDS011;63465;50.862;6.220;2023-08-17T00:21:34;13.23;;;10.50;;
74904;SDS011;63465;50.862;6.220;2023-08-17T00:24:01;13.27;;;11.17;;
74904;SDS011;63465;50.862;6.220;2023-08-17T00:26:26;14.40;;;10.97;;
74904;SDS011;63465;50.862;6.220;2023-08-17T00:28:53;17.20;;;11.63;;
74904;SDS011;63465;50.862;6.220;2023-08-17T00:31:18;14.27;;;10.40;;
74904;SDS011;63465;50.862;6.220;2023-08-17T00:33:43;12.97;;;10.27;;
74904;SDS011;63465;50.862;6.220;2023-08-17T00:36:08;23.00;;;11.40;;
74904;SDS011;63465;50.862;6.220;2023-08-17T00:38:34;19.67;;;12.10;;
74904;SDS011;63465;50.862;6.220;2023-08-17T00:40:59;13.40;;;10.50;;
74904;SDS011;63465;50.862;6.220;2023-08-17T00:43:24;16.20;;;11.07;;
74904;SDS011;63465;50.862;6.220;2023-08-17T00:45:50;20.57;;;11.33;;
74904;SDS011;63465;50.862;6.220;2023-08-17T00:48:16;15.10;;;11.50;;
74904;SDS011;63465;50.862;6.220;2023-08-17T00:50:41;15.50;;;11.83;;
74904;SDS011;63465;50.862;6.220;2023-08-17T00:53:07;23.30;;;12.43;;
74904;SDS011;63465;50.862;6.220;2023-08-17T00:55:38;18.57;;;12.80;;
74904;SDS011;63465;50.862;6.220;2023-08-17T00:58:03;14.53;;;11.30;;
74904;SDS011;63465;50.862;6.220;2023-08-17T01:00:29;18.13;;;12.83;;
74904;SDS011;63465;50.862;6.220;2023-08-17T01:02:56;15.87;;;11.90;;
74904;SDS011;63465;50.862;6.220;2023-08-17T01:05:23;16.50;;;11.70;;
74904;SDS011;63465;50.862;6.220;2023-08-17T01:07:48;17.17;;;12.03;;
74904;SDS011;63465;50.862;6.220;2023-08-17T01:10:14;16.73;;;11.33;;
74904;SDS011;63465;50.862;6.220;2023-08-17T01:15:39;14.53;;;11.30;;
74904;SDS011;63465;50.862;6.220;2023-08-17T01:18:11;14.87;;;10.17;;
74904;SDS011;63465;50.862;6.220;2023-08-17T01:20:44;20.60;;;10.50;;
74904;SDS011;63465;50.862;6.220;2023-08-17T01:23:11;21.60;;;11.20;;
74904;SDS011;63465;50.862;6.220;2023-08-17T01:25:36;18.07;;;10.93;;
74904;SDS011;63465;50.862;6.220;2023-08-17T01:28:02;17.50;;;10.67;;
74904;SDS011;63465;50.862;6.220;2023-08-17T01:30:29;14.30;;;10.50;;
74904;SDS011;63465;50.862;6.220;2023-08-17T01:33:06;15.87;;;10.80;;
74904;SDS011;63465;50.862;6.220;2023-08-17T01:35:41;14.97;;;11.03;;
74904;SDS011;63465;50.862;6.220;2023-08-17T01:38:10;15.10;;;10.93;;
74904;SDS011;63465;50.862;6.220;2023-08-17T01:40:38;13.30;;;10.73;;
74904;SDS011;63465;50.862;6.220;2023-08-17T01:43:03;14.57;;;10.10;;
74904;SDS011;63465;50.862;6.220;2023-08-17T01:45:30;15.60;;;10.10;;
74904;SDS011;63465;50.862;6.220;2023-08-17T01:47:55;16.40;;;11.27;;
74904;SDS011;63465;50.862;6.220;2023-08-17T01:50:21;13.37;;;10.43;;
74904;SDS011;63465;50.862;6.220;2023-08-17T01:52:46;15.60;;;11.13;;
74904;SDS011;63465;50.862;6.220;2023-08-17T01:55:11;13.50;;;11.10;;
74904;SDS011;63465;50.862;6.220;2023-08-17T01:57:37;15.97;;;11.90;;
74904;SDS011;63465;50.862;6.220;2023-08-17T02:00:03;16.97;;;11.30;;
74904;SDS011;63465;50.862;6.220;2023-08-17T02:02:30;18.70;;;11.07;;
74904;SDS011;63465;50.862;6.220;2023-08-17T02:04:55;15.73;;;11.00;;
74904;SDS011;63465;50.862;6.220;2023-08-17T02:07:20;13.67;;;11.43;;
74904;SDS011;63465;50.862;6.220;2023-08-17T02:09:45;13.50;;;11.27;;
74904;SDS011;63465;50.862;6.220;2023-08-17T02:12:11;15.80;;;11.80;;
74904;SDS011;63465;50.862;6.220;2023-08-17T02:14:36;20.70;;;11.80;;
74904;SDS011;63465;50.862;6.220;2023-08-17T02:17:01;17.20;;;12.57;;
74904;SDS011;63465;50.862;6.220;2023-08-17T02:19:27;18.53;;;11.13;;
74904;SDS011;63465;50.862;6.220;2023-08-17T02:21:52;16.53;;;12.77;;
74904;SDS011;63465;50.862;6.220;2023-08-17T02:24:17;14.63;;;12.53;;
74904;SDS011;63465;50.862;6.220;2023-08-17T02:26:43;23.30;;;13.10;;
74904;SDS011;63465;50.862;6.220;2023-08-17T02:29:08;18.73;;;12.30;;
74904;SDS011;63465;50.862;6.220;2023-08-17T02:31:33;16.97;;;12.80;;
74904;SDS011;63465;50.862;6.220;2023-08-17T02:33:59;16.70;;;12.30;;
74904;SDS011;63465;50.862;6.220;2023-08-17T02:36:29;20.17;;;13.90;;
74904;SDS011;63465;50.862;6.220;2023-08-17T02:38:55;17.23;;;12.90;;
74904;SDS011;63465;50.862;6.220;2023-08-17T02:41:20;19.47;;;12.80;;
74904;SDS011;63465;50.862;6.220;2023-08-17T02:43:45;17.37;;;13.33;;
74904;SDS011;63465;50.862;6.220;2023-08-17T02:46:11;14.83;;;12.80;;
74904;SDS011;63465;50.862;6.220;2023-08-17T02:48:36;17.50;;;12.67;;
74904;SDS011;63465;50.862;6.220;2023-08-17T02:51:01;18.87;;;13.70;;
74904;SDS011;63465;50.862;6.220;2023-08-17T02:53:27;21.13;;;14.30;;
74904;SDS011;63465;50.862;6.220;2023-08-17T02:55:52;23.37;;;14.17;;
74904;SDS011;63465;50.862;6.220;2023-08-17T02:58:17;20.03;;;13.83;;
74904;SDS011;63465;50.862;6.220;2023-08-17T03:00:43;23.03;;;14.73;;
74904;SDS011;63465;50.862;6.220;2023-08-17T03:03:08;18.10;;;13.87;;
74904;SDS011;63465;50.862;6.220;2023-08-17T03:05:33;19.17;;;14.93;;
74904;SDS011;63465;50.862;6.220;2023-08-17T03:07:59;17.80;;;14.90;;
74904;SDS011;63465;50.862;6.220;2023-08-17T03:10:24;21.67;;;14.27;;
74904;SDS011;63465;50.862;6.220;2023-08-17T03:12:50;19.63;;;14.80;;
74904;SDS011;63465;50.862;6.220;2023-08-17T03:15:16;22.60;;;15.90;;
74904;SDS011;63465;50.862;6.220;2023-08-17T03:17:41;26.07;;;15.17;;
74904;SDS011;63465;50.862;6.220;2023-08-17T03:20:06;23.70;;;14.97;;
74904;SDS011;63465;50.862;6.220;2023-08-17T03:22:32;21.73;;;14.10;;
74904;SDS011;63465;50.862;6.220;2023-08-17T03:24:58;21.20;;;14.77;;
74904;SDS011;63465;50.862;6.220;2023-08-17T03:27:23;18.93;;;15.10;;
74904;SDS011;63465;50.862;6.220;2023-08-17T03:29:49;28.10;;;15.03;;
74904;SDS011;63465;50.862;6.220;2023-08-17T03:32:15;18.27;;;13.80;;
74904;SDS011;63465;50.862;6.220;2023-08-17T03:34:41;20.73;;;14.20;;
74904;SDS011;63465;50.862;6.220;2023-08-17T03:37:06;17.50;;;14.27;;
74904;SDS011;63465;50.862;6.220;2023-08-17T03:39:32;20.83;;;14.37;;
74904;SDS011;63465;50.862;6.220;2023-08-17T03:41:57;21.23;;;14.33;;
74904;SDS011;63465;50.862;6.220;2023-08-17T03:44:22;24.10;;;14.90;;
74904;SDS011;63465;50.862;6.220;2023-08-17T03:46:47;19.77;;;14.90;;
74904;SDS011;63465;50.862;6.220;2023-08-17T03:49:13;24.67;;;15.00;;
74904;SDS011;63465;50.862;6.220;2023-08-17T03:51:39;20.40;;;14.30;;
74904;SDS011;63465;50.862;6.220;2023-08-17T03:54:05;23.43;;;13.73;;
74904;SDS011;63465;50.862;6.220;2023-08-17T03:56:30;23.33;;;15.50;;
74904;SDS011;63465;50.862;6.220;2023-08-17T03:58:56;21.30;;;14.40;;
74904;SDS011;63465;50.862;6.220;2023-08-17T04:01:21;21.47;;;15.23;;
74904;SDS011;63465;50.862;6.220;2023-08-17T04:03:46;18.40;;;14.20;;
74904;SDS011;63465;50.862;6.220;2023-08-17T04:06:12;21.30;;;16.00;;
74904;SDS011;63465;50.862;6.220;2023-08-17T04:08:37;24.70;;;16.43;;
74904;SDS011;63465;50.862;6.220;2023-08-17T04:11:03;23.90;;;16.70;;
74904;SDS011;63465;50.862;6.220;2023-08-17T04:13:29;25.20;;;16.00;;
74904;SDS011;63465;50.862;6.220;2023-08-17T04:15:55;23.70;;;15.50;;
74904;SDS011;63465;50.862;6.220;2023-08-17T04:18:20;22.70;;;16.80;;
74904;SDS011;63465;50.862;6.220;2023-08-17T04:20:46;28.60;;;17.00;;
74904;SDS011;63465;50.862;6.220;2023-08-17T04:23:11;24.90;;;16.83;;
74904;SDS011;63465;50.862;6.220;2023-08-17T04:25:36;26.33;;;18.40;;
74904;SDS011;63465;50.862;6.220;2023-08-17T04:28:01;27.27;;;15.77;;
74904;SDS011;63465;50.862;6.220;2023-08-17T04:30:27;25.13;;;16.33;;
74904;SDS011;63465;50.862;6.220;2023-08-17T04:32:52;22.40;;;15.43;;
74904;SDS011;63465;50.862;6.220;2023-08-17T04:35:21;27.00;;;16.30;;
74904;SDS011;63465;50.862;6.220;2023-08-17T04:37:46;24.00;;;15.63;;
74904;SDS011;63465;50.862;6.220;2023-08-17T04:40:14;24.10;;;16.70;;
74904;SDS011;63465;50.862;6.220;2023-08-17T04:42:40;22.67;;;15.97;;
74904;SDS011;63465;50.862;6.220;2023-08-17T04:45:05;23.63;;;16.00;;
74904;SDS011;63465;50.862;6.220;2023-08-17T04:47:31;21.40;;;15.43;;
74904;SDS011;63465;50.862;6.220;2023-08-17T04:49:57;30.60;;;15.60;;
74904;SDS011;63465;50.862;6.220;2023-08-17T04:52:22;26.77;;;15.80;;
74904;SDS011;63465;50.862;6.220;2023-08-17T04:54:47;23.13;;;15.50;;
74904;SDS011;63465;50.862;6.220;2023-08-17T04:57:12;26.77;;;15.40;;
74904;SDS011;63465;50.862;6.220;2023-08-17T04:59:38;23.17;;;15.20;;
74904;SDS011;63465;50.862;6.220;2023-08-17T05:02:03;25.73;;;16.27;;
74904;SDS011;63465;50.862;6.220;2023-08-17T05:04:29;27.80;;;15.60;;
74904;SDS011;63465;50.862;6.220;2023-08-17T05:06:55;23.47;;;16.30;;
74904;SDS011;63465;50.862;6.220;2023-08-17T05:09:21;23.70;;;15.20;;
74904;SDS011;63465;50.862;6.220;2023-08-17T05:11:46;31.37;;;17.87;;
74904;SDS011;63465;50.862;6.220;2023-08-17T05:14:11;29.33;;;16.30;;
74904;SDS011;63465;50.862;6.220;2023-08-17T05:16:37;32.33;;;17.63;;
74904;SDS011;63465;50.862;6.220;2023-08-17T05:19:02;48.03;;;17.93;;
74904;SDS011;63465;50.862;6.220;2023-08-17T05:21:28;30.73;;;17.13;;
74904;SDS011;63465;50.862;6.220;2023-08-17T05:23:54;30.27;;;16.90;;
74904;SDS011;63465;50.862;6.220;2023-08-17T05:26:19;25.93;;;16.23;;
74904;SDS011;63465;50.862;6.220;2023-08-17T05:28:44;34.43;;;16.57;;
74904;SDS011;63465;50.862;6.220;2023-08-17T05:31:10;25.97;;;16.20;;
74904;SDS011;63465;50.862;6.220;2023-08-17T05:33:35;31.00;;;15.83;;
74904;SDS011;63465;50.862;6.220;2023-08-17T05:36:01;31.07;;;17.23;;
74904;SDS011;63465;50.862;6.220;2023-08-17T05:38:26;34.50;;;16.87;;
74904;SDS011;63465;50.862;6.220;2023-08-17T05:40:57;31.50;;;16.07;;
74904;SDS011;63465;50.862;6.220;2023-08-17T05:43:24;31.43;;;19.07;;
74904;SDS011;63465;50.862;6.220;2023-08-17T05:45:49;37.90;;;20.10;;
74904;SDS011;63465;50.862;6.220;2023-08-17T05:48:14;38.97;;;18.77;;
74904;SDS011;63465;50.862;6.220;2023-08-17T05:50:43;37.53;;;19.20;;
74904;SDS011;63465;50.862;6.220;2023-08-17T05:53:08;35.77;;;20.20;;
74904;SDS011;63465;50.862;6.220;2023-08-17T05:55:33;53.83;;;21.13;;
74904;SDS011;63465;50.862;6.220;2023-08-17T05:57:59;41.47;;;22.07;;
74904;SDS011;63465;50.862;6.220;2023-08-17T06:00:24;40.70;;;22.33;;
74904;SDS011;63465;50.862;6.220;2023-08-17T06:02:50;55.10;;;25.00;;
74904;SDS011;63465;50.862;6.220;2023-08-17T06:05:16;42.37;;;23.40;;
74904;SDS011;63465;50.862;6.220;2023-08-17T06:07:42;41.23;;;23.07;;
74904;SDS011;63465;50.862;6.220;2023-08-17T06:10:08;44.77;;;23.23;;
74904;SDS011;63465;50.862;6.220;2023-08-17T06:12:34;43.83;;;22.93;;
74904;SDS011;63465;50.862;6.220;2023-08-17T06:15:01;43.27;;;23.90;;
74904;SDS011;63465;50.862;6.220;2023-08-17T06:17:26;37.60;;;22.40;;
74904;SDS011;63465;50.862;6.220;2023-08-17T06:19:52;49.20;;;23.63;;
74904;SDS011;63465;50.862;6.220;2023-08-17T06:22:17;38.93;;;21.77;;
74904;SDS011;63465;50.862;6.220;2023-08-17T06:24:42;43.37;;;23.30;;
74904;SDS011;63465;50.862;6.220;2023-08-17T06:27:08;40.93;;;22.97;;
74904;SDS011;63465;50.862;6.220;2023-08-17T06:29:33;48.20;;;24.13;;
74904;SDS011;63465;50.862;6.220;2023-08-17T06:31:58;47.67;;;25.20;;
74904;SDS011;63465;50.862;6.220;2023-08-17T06:34:24;46.43;;;23.70;;
74904;SDS011;63465;50.862;6.220;2023-08-17T06:36:59;47.00;;;24.67;;
74904;SDS011;63465;50.862;6.220;2023-08-17T06:39:26;46.33;;;23.10;;
74904;SDS011;63465;50.862;6.220;2023-08-17T06:41:52;46.67;;;25.50;;
74904;SDS011;63465;50.862;6.220;2023-08-17T06:44:18;50.60;;;26.83;;
74904;SDS011;63465;50.862;6.220;2023-08-17T06:46:43;49.70;;;26.03;;
74904;SDS011;63465;50.862;6.220;2023-08-17T06:49:10;39.23;;;24.20;;
74904;SDS011;63465;50.862;6.220;2023-08-17T06:51:36;44.03;;;25.37;;
74904;SDS011;63465;50.862;6.220;2023-08-17T06:54:01;50.43;;;25.30;;
74904;SDS011;63465;50.862;6.220;2023-08-17T06:56:27;47.77;;;27.03;;
74904;SDS011;63465;50.862;6.220;2023-08-17T06:58:52;39.77;;;24.70;;
74904;SDS011;63465;50.862;6.220;2023-08-17T07:01:17;45.30;;;25.97;;
74904;SDS011;63465;50.862;6.220;2023-08-17T07:03:43;46.10;;;23.77;;
74904;SDS011;63465;50.862;6.220;2023-08-17T07:06:08;51.30;;;25.70;;
74904;SDS011;63465;50.862;6.220;2023-08-17T07:08:34;46.40;;;26.03;;
74904;SDS011;63465;50.862;6.220;2023-08-17T07:11:00;42.40;;;25.00;;
74904;SDS011;63465;50.862;6.220;2023-08-17T07:13:25;50.73;;;25.27;;
74904;SDS011;63465;50.862;6.220;2023-08-17T07:15:50;50.43;;;25.97;;
74904;SDS011;63465;50.862;6.220;2023-08-17T07:18:16;45.67;;;25.10;;
74904;SDS011;63465;50.862;6.220;2023-08-17T07:20:41;51.10;;;25.60;;
74904;SDS011;63465;50.862;6.220;2023-08-17T07:23:06;49.53;;;24.30;;
74904;SDS011;63465;50.862;6.220;2023-08-17T07:25:31;48.80;;;25.80;;
74904;SDS011;63465;50.862;6.220;2023-08-17T07:27:58;41.90;;;23.47;;
74904;SDS011;63465;50.862;6.220;2023-08-17T07:30:23;43.43;;;24.57;;
74904;SDS011;63465;50.862;6.220;2023-08-17T07:32:48;48.63;;;24.10;;
74904;SDS011;63465;50.862;6.220;2023-08-17T07:35:14;48.87;;;25.40;;
74904;SDS011;63465;50.862;6.220;2023-08-17T07:37:39;46.73;;;25.80;;
74904;SDS011;63465;50.862;6.220;2023-08-17T07:40:04;42.43;;;25.03;;
74904;SDS011;63465;50.862;6.220;2023-08-17T07:42:30;47.47;;;25.47;;
74904;SDS011;63465;50.862;6.220;2023-08-17T07:44:56;41.70;;;23.23;;
74904;SDS011;63465;50.862;6.220;2023-08-17T07:47:21;44.57;;;24.37;;
74904;SDS011;63465;50.862;6.220;2023-08-17T07:49:46;56.20;;;25.87;;
74904;SDS011;63465;50.862;6.220;2023-08-17T07:52:12;47.83;;;24.03;;
74904;SDS011;63465;50.862;6.220;2023-08-17T07:54:37;47.80;;;24.10;;
74904;SDS011;63465;50.862;6.220;2023-08-17T07:57:02;53.13;;;24.30;;
74904;SDS011;63465;50.862;6.220;2023-08-17T07:59:28;48.20;;;24.60;;
74904;SDS011;63465;50.862;6.220;2023-08-17T08:01:54;47.57;;;22.83;;
74904;SDS011;63465;50.862;6.220;2023-08-17T08:04:19;43.90;;;23.10;;
74904;SDS011;63465;50.862;6.220;2023-08-17T08:06:45;43.60;;;22.53;;
74904;SDS011;63465;50.862;6.220;2023-08-17T08:09:11;46.73;;;23.77;;
74904;SDS011;63465;50.862;6.220;2023-08-17T08:11:36;53.50;;;25.27;;
74904;SDS011;63465;50.862;6.220;2023-08-17T08:14:01;42.30;;;24.30;;
74904;SDS011;63465;50.862;6.220;2023-08-17T08:16:27;39.27;;;22.60;;
74904;SDS011;63465;50.862;6.220;2023-08-17T08:18:55;41.97;;;24.33;;
74904;SDS011;63465;50.862;6.220;2023-08-17T08:21:20;44.17;;;23.80;;
74904;SDS011;63465;50.862;6.220;2023-08-17T08:23:46;41.17;;;22.30;;
74904;SDS011;63465;50.862;6.220;2023-08-17T08:26:11;45.47;;;24.67;;
74904;SDS011;63465;50.862;6.220;2023-08-17T08:28:36;50.70;;;23.80;;
74904;SDS011;63465;50.862;6.220;2023-08-17T08:31:02;46.57;;;23.03;;
74904;SDS011;63465;50.862;6.220;2023-08-17T08:33:28;41.53;;;22.60;;
74904;SDS011;63465;50.862;6.220;2023-08-17T08:35:54;43.93;;;23.47;;
74904;SDS011;63465;50.862;6.220;2023-08-17T08:38:19;47.97;;;21.40;;
74904;SDS011;63465;50.862;6.220;2023-08-17T08:40:44;40.47;;;21.90;;
74904;SDS011;63465;50.862;6.220;2023-08-17T08:43:12;41.43;;;22.43;;
74904;SDS011;63465;50.862;6.220;2023-08-17T08:45:38;44.50;;;23.03;;
74904;SDS011;63465;50.862;6.220;2023-08-17T08:48:06;47.03;;;21.53;;
74904;SDS011;63465;50.862;6.220;2023-08-17T08:50:33;43.20;;;23.23;;
74904;SDS011;63465;50.862;6.220;2023-08-17T08:53:01;36.07;;;20.73;;
74904;SDS011;63465;50.862;6.220;2023-08-17T08:55:30;40.37;;;22.80;;
74904;SDS011;63465;50.862;6.220;2023-08-17T08:58:02;41.67;;;21.73;;
74904;SDS011;63465;50.862;6.220;2023-08-17T09:00:29;36.83;;;21.47;;
74904;SDS011;63465;50.862;6.220;2023-08-17T09:02:55;42.57;;;22.43;;
74904;SDS011;63465;50.862;6.220;2023-08-17T09:05:21;41.60;;;21.80;;
74904;SDS011;63465;50.862;6.220;2023-08-17T09:07:50;35.20;;;21.77;;
74904;SDS011;63465;50.862;6.220;2023-08-17T09:10:17;48.23;;;21.47;;
74904;SDS011;63465;50.862;6.220;2023-08-17T09:12:43;39.77;;;21.03;;
74904;SDS011;63465;50.862;6.220;2023-08-17T09:15:10;35.33;;;20.50;;
74904;SDS011;63465;50.862;6.220;2023-08-17T09:17:35;41.27;;;21.40;;
74904;SDS011;63465;50.862;6.220;2023-08-17T09:20:01;38.43;;;20.57;;
74904;SDS011;63465;50.862;6.220;2023-08-17T09:22:38;40.97;;;20.30;;
74904;SDS011;63465;50.862;6.220;2023-08-17T09:25:04;31.03;;;19.30;;
74904;SDS011;63465;50.862;6.220;2023-08-17T09:27:31;30.33;;;19.00;;
74904;SDS011;63465;50.862;6.220;2023-08-17T09:32:32;34.83;;;18.90;;
74904;SDS011;63465;50.862;6.220;2023-08-17T09:35:04;35.73;;;19.70;;
74904;SDS011;63465;50.862;6.220;2023-08-17T09:37:34;33.30;;;18.83;;
74904;SDS011;63465;50.862;6.220;2023-08-17T09:39:59;32.07;;;19.10;;
74904;SDS011;63465;50.862;6.220;2023-08-17T09:42:25;35.37;;;19.23;;
74904;SDS011;63465;50.862;6.220;2023-08-17T09:44:52;29.60;;;19.70;;
74904;SDS011;63465;50.862;6.220;2023-08-17T09:47:18;34.90;;;19.10;;
74904;SDS011;63465;50.862;6.220;2023-08-17T09:49:49;25.50;;;17.20;;
74904;SDS011;63465;50.862;6.220;2023-08-17T09:52:18;25.23;;;16.73;;
74904;SDS011;63465;50.862;6.220;2023-08-17T09:54:44;28.27;;;17.33;;
74904;SDS011;63465;50.862;6.220;2023-08-17T09:57:11;25.87;;;17.80;;
74904;SDS011;63465;50.862;6.220;2023-08-17T09:59:37;35.63;;;19.77;;
74904;SDS011;63465;50.862;6.220;2023-08-17T10:02:03;30.30;;;19.23;;
74904;SDS011;63465;50.862;6.220;2023-08-17T10:04:30;34.60;;;18.37;;
74904;SDS011;63465;50.862;6.220;2023-08-17T10:06:59;31.23;;;17.77;;
74904;SDS011;63465;50.862;6.220;2023-08-17T10:09:28;27.80;;;17.27;;
74904;SDS011;63465;50.862;6.220;2023-08-17T10:12:02;26.80;;;17.23;;
74904;SDS011;63465;50.862;6.220;2023-08-17T10:14:36;26.97;;;16.60;;
74904;SDS011;63465;50.862;6.220;2023-08-17T10:17:07;25.47;;;15.30;;
74904;SDS011;63465;50.862;6.220;2023-08-17T10:19:46;36.77;;;16.70;;
74904;SDS011;63465;50.862;6.220;2023-08-17T10:22:18;29.00;;;17.10;;
74904;SDS011;63465;50.862;6.220;2023-08-17T10:24:51;31.60;;;16.10;;
74904;SDS011;63465;50.862;6.220;2023-08-17T10:27:20;27.37;;;16.20;;
74904;SDS011;63465;50.862;6.220;2023-08-17T10:29:45;28.00;;;16.80;;
74904;SDS011;63465;50.862;6.220;2023-08-17T10:32:12;29.50;;;19.00;;
74904;SDS011;63465;50.862;6.220;2023-08-17T10:34:39;32.90;;;18.93;;
74904;SDS011;63465;50.862;6.220;2023-08-17T10:37:05;33.30;;;18.60;;
74904;SDS011;63465;50.862;6.220;2023-08-17T10:39:31;29.93;;;18.40;;
74904;SDS011;63465;50.862;6.220;2023-08-17T10:41:57;33.87;;;18.47;;
74904;SDS011;63465;50.862;6.220;2023-08-17T10:44:37;35.73;;;21.43;;
74904;SDS011;63465;50.862;6.220;2023-08-17T10:52:45;37.70;;;21.17;;
74904;SDS011;63465;50.862;6.220;2023-08-17T10:55:13;31.23;;;19.10;;
74904;SDS011;63465;50.862;6.220;2023-08-17T10:57:41;29.93;;;18.60;;
74904;SDS011;63465;50.862;6.220;2023-08-17T11:00:17;28.50;;;17.47;;
74904;SDS011;63465;50.862;6.220;2023-08-17T11:02:53;27.87;;;19.90;;
74904;SDS011;63465;50.862;6.220;2023-08-17T11:08:09;29.20;;;18.83;;
74904;SDS011;63465;50.862;6.220;2023-08-17T11:10:35;26.30;;;17.10;;
74904;SDS011;63465;50.862;6.220;2023-08-17T11:13:01;27.03;;;17.43;;
74904;SDS011;63465;50.862;6.220;2023-08-17T11:15:41;34.50;;;18.60;;
74904;SDS011;63465;50.862;6.220;2023-08-17T11:18:11;28.83;;;18.87;;
74904;SDS011;63465;50.862;6.220;2023-08-17T11:20:38;34.73;;;18.87;;
74904;SDS011;63465;50.862;6.220;2023-08-17T11:23:05;35.70;;;18.83;;
74904;SDS011;63465;50.862;6.220;2023-08-17T11:25:32;24.77;;;17.50;;
74904;SDS011;63465;50.862;6.220;2023-08-17T11:27:58;29.93;;;18.20;;
74904;SDS011;63465;50.862;6.220;2023-08-17T11:30:24;28.57;;;17.90;;
74904;SDS011;63465;50.862;6.220;2023-08-17T11:32:52;28.17;;;17.37;;
74904;SDS011;63465;50.862;6.220;2023-08-17T11:35:19;35.13;;;19.80;;
74904;SDS011;63465;50.862;6.220;2023-08-17T11:37:46;40.63;;;21.67;;
74904;SDS011;63465;50.862;6.220;2023-08-17T11:40:13;36.57;;;20.90;;
74904;SDS011;63465;50.862;6.220;2023-08-17T11:42:39;31.40;;;21.90;;
74904;SDS011;63465;50.862;6.220;2023-08-17T11:45:05;36.13;;;23.50;;
74904;SDS011;63465;50.862;6.220;2023-08-17T11:47:34;36.90;;;22.27;;
74904;SDS011;63465;50.862;6.220;2023-08-17T11:50:00;33.97;;;23.13;;
74904;SDS011;63465;50.862;6.220;2023-08-17T11:52:26;33.50;;;20.83;;
74904;SDS011;63465;50.862;6.220;2023-08-17T11:54:54;37.50;;;22.27;;
74904;SDS011;63465;50.862;6.220;2023-08-17T11:57:22;41.17;;;24.00;;
74904;SDS011;63465;50.862;6.220;2023-08-17T11:59:47;37.33;;;23.87;;
74904;SDS011;63465;50.862;6.220;2023-08-17T12:02:13;41.70;;;25.00;;
74904;SDS011;63465;50.862;6.220;2023-08-17T12:04:38;35.23;;;22.40;;
74904;SDS011;63465;50.862;6.220;2023-08-17T12:07:03;35.90;;;23.07;;
74904;SDS011;63465;50.862;6.220;2023-08-17T12:09:33;34.20;;;22.33;;
74904;SDS011;63465;50.862;6.220;2023-08-17T12:11:59;35.40;;;22.33;;
74904;SDS011;63465;50.862;6.220;2023-08-17T12:14:26;33.20;;;21.47;;
74904;SDS011;63465;50.862;6.220;2023-08-17T12:16:52;39.50;;;21.87;;
74904;SDS011;63465;50.862;6.220;2023-08-17T12:19:19;39.47;;;21.60;;
74904;SDS011;63465;50.862;6.220;2023-08-17T12:21:45;42.03;;;22.07;;
74904;SDS011;63465;50.862;6.220;2023-08-17T12:24:10;42.80;;;22.60;;
74904;SDS011;63465;50.862;6.220;2023-08-17T12:26:42;37.53;;;23.10;;
74904;SDS011;63465;50.862;6.220;2023-08-17T12:29:08;36.43;;;23.03;;
74904;SDS011;63465;50.862;6.220;2023-08-17T12:31:34;40.53;;;23.73;;
74904;SDS011;63465;50.862;6.220;2023-08-17T12:33:59;34.07;;;21.13;;
74904;SDS011;63465;50.862;6.220;2023-08-17T12:36:24;40.90;;;23.20;;
74904;SDS011;63465;50.862;6.220;2023-08-17T12:38:50;35.43;;;21.60;;
74904;SDS011;63465;50.862;6.220;2023-08-17T12:41:15;37.63;;;23.40;;
74904;SDS011;63465;50.862;6.220;2023-08-17T12:43:41;41.20;;;21.97;;
74904;SDS011;63465;50.862;6.220;2023-08-17T12:46:06;41.60;;;22.80;;
74904;SDS011;63465;50.862;6.220;2023-08-17T12:48:31;43.50;;;24.40;;
74904;SDS011;63465;50.862;6.220;2023-08-17T12:50:57;41.80;;;23.33;;
74904;SDS011;63465;50.862;6.220;2023-08-17T12:53:22;44.50;;;22.57;;
74904;SDS011;63465;50.862;6.220;2023-08-17T12:55:47;46.07;;;24.53;;
74904;SDS011;63465;50.862;6.220;2023-08-17T12:58:14;41.97;;;21.80;;
74904;SDS011;63465;50.862;6.220;2023-08-17T13:00:39;39.93;;;21.50;;
74904;SDS011;63465;50.862;6.220;2023-08-17T13:03:04;48.80;;;22.80;;
74904;SDS011;63465;50.862;6.220;2023-08-17T13:05:30;40.50;;;22.00;;
74904;SDS011;63465;50.862;6.220;2023-08-17T13:07:55;41.80;;;23.40;;
74904;SDS011;63465;50.862;6.220;2023-08-17T13:10:20;42.23;;;22.30;;
74904;SDS011;63465;50.862;6.220;2023-08-17T13:12:46;44.20;;;23.03;;
74904;SDS011;63465;50.862;6.220;2023-08-17T13:15:12;43.13;;;22.90;;
74904;SDS011;63465;50.862;6.220;2023-08-17T13:17:37;45.10;;;21.97;;
74904;SDS011;63465;50.862;6.220;2023-08-17T13:20:03;47.00;;;23.53;;
74904;SDS011;63465;50.862;6.220;2023-08-17T13:22:30;51.93;;;24.60;;
74904;SDS011;63465;50.862;6.220;2023-08-17T13:24:56;45.17;;;23.03;;
74904;SDS011;63465;50.862;6.220;2023-08-17T13:27:21;51.63;;;25.27;;
74904;SDS011;63465;50.862;6.220;2023-08-17T13:29:47;62.77;;;27.27;;
74904;SDS011;63465;50.862;6.220;2023-08-17T13:32:12;61.57;;;25.20;;
74904;SDS011;63465;50.862;6.220;2023-08-17T13:34:37;51.30;;;25.40;;
74904;SDS011;63465;50.862;6.220;2023-08-17T13:37:03;48.60;;;25.40;;
74904;SDS011;63465;50.862;6.220;2023-08-17T13:39:28;47.83;;;24.10;;
74904;SDS011;63465;50.862;6.220;2023-08-17T13:41:53;44.87;;;23.33;;
74904;SDS011;63465;50.862;6.220;2023-08-17T13:44:19;42.53;;;23.77;;
74904;SDS011;63465;50.862;6.220;2023-08-17T13:46:44;46.47;;;25.40;;
74904;SDS011;63465;50.862;6.220;2023-08-17T13:49:09;45.97;;;24.27;;
74904;SDS011;63465;50.862;6.220;2023-08-17T13:51:35;49.53;;;25.37;;
74904;SDS011;63465;50.862;6.220;2023-08-17T13:54:00;44.47;;;24.67;;
74904;SDS011;63465;50.862;6.220;2023-08-17T13:56:25;45.80;;;24.00;;
74904;SDS011;63465;50.862;6.220;2023-08-17T13:58:51;45.33;;;24.37;;
74904;SDS011;63465;50.862;6.220;2023-08-17T14:01:16;43.40;;;24.57;;
74904;SDS011;63465;50.862;6.220;2023-08-17T14:03:42;43.80;;;24.07;;
74904;SDS011;63465;50.862;6.220;2023-08-17T14:06:07;49.20;;;25.00;;
74904;SDS011;63465;50.862;6.220;2023-08-17T14:08:33;44.47;;;24.87;;
74904;SDS011;63465;50.862;6.220;2023-08-17T14:10:58;45.60;;;24.90;;
74904;SDS011;63465;50.862;6.220;2023-08-17T14:13:25;45.10;;;24.73;;
74904;SDS011;63465;50.862;6.220;2023-08-17T14:15:50;43.97;;;23.60;;
74904;SDS011;63465;50.862;6.220;2023-08-17T14:18:15;44.50;;;24.73;;
74904;SDS011;63465;50.862;6.220;2023-08-17T14:20:41;46.63;;;23.87;;
74904;SDS011;63465;50.862;6.220;2023-08-17T14:23:06;47.80;;;24.67;;
74904;SDS011;63465;50.862;6.220;2023-08-17T14:25:31;45.40;;;24.57;;
74904;SDS011;63465;50.862;6.220;2023-08-17T14:27:57;43.57;;;22.93;;
74904;SDS011;63465;50.862;6.220;2023-08-17T14:30:22;45.23;;;23.17;;